aviador You're here:

KBKE Decoded Metar

BAKER in OR, USA
Report Time2018-02-19 11:53:00
UTC Time2018-02-19 12:05:34
Flight Rules vfr VFR
Wind310° at 15 kt
W.Decomp.*RWY 31: 14.4 kt HW 4.1 kt LCW
RWY 26: 12.4 kt HW 8.4 kt RCW
RWY 35: 8.4 kt HW 12.4 kt LCW
W.Rank310° ranks 1
Current wind is above 310° avg. (10.1)
Visibility9999 m
Phenomena:N/A
Clouds:Scattered 024 Hf
Broken 070 Hf
Expected CloudBase > 2,000 ft AGL from Temp-Dew spread
Ceiling7,000 ft
Temp-7°C (ISA -15)
Dew Point-12°C (68% RH)
AAT-15.6°C
QNH1007 hPa
Density Alt1,726 ft
Elevation3,360 ft
Report Wrong Elevation
Raw Report
METAR KBKE 191153Z AUTO 31015KT 10SM SCT024 BKN070 M07/M12 A2973 RMK
AO2 SLP097 60000 70002 I6001 T10671122 11033 21072 51016=

Extra information for KBKE:More info

Metar Taf Metar & Taf Last 4 Metars F.Rules Stats Wind Profile Meteogram Temp Stats Airport Information Weather charts Add Link Nearby VenuesMetar ALERT Operation Metar Decoded Social comments

AIRNAV info for KBKE